sensor_id;sensor_type;location;lat;lon;timestamp;pressure;altitude;pressure_sealevel;temperature;humidity
47738;BME280;33502;47.182;27.506;2022-12-07T00:01:13;100062.41;;;2.12;100.00
47738;BME280;33502;47.182;27.506;2022-12-07T00:03:40;100066.09;;;1.96;100.00
47738;BME280;33502;47.182;27.506;2022-12-07T00:06:08;100057.50;;;1.85;100.00
47738;BME280;33502;47.182;27.506;2022-12-07T00:08:36;100057.53;;;1.83;100.00
47738;BME280;33502;47.182;27.506;2022-12-07T00:11:03;100055.81;;;1.82;100.00
47738;BME280;33502;47.182;27.506;2022-12-07T00:13:30;100054.69;;;2.03;100.00
47738;BME280;33502;47.182;27.506;2022-12-07T00:16:03;100051.06;;;2.13;100.00
47738;BME280;33502;47.182;27.506;2022-12-07T00:18:29;100066.63;;;2.23;100.00
47738;BME280;33502;47.182;27.506;2022-12-07T00:21:05;100057.88;;;2.25;100.00
47738;BME280;33502;47.182;27.506;2022-12-07T00:23:32;100060.53;;;2.24;100.00
47738;BME280;33502;47.182;27.506;2022-12-07T00:26:28;100050.03;;;2.25;100.00
47738;BME280;33502;47.182;27.506;2022-12-07T00:29:02;100061.41;;;2.21;100.00
47738;BME280;33502;47.182;27.506;2022-12-07T00:31:32;100067.50;;;2.23;100.00
47738;BME280;33502;47.182;27.506;2022-12-07T00:33:59;100053.53;;;2.26;100.00
47738;BME280;33502;47.182;27.506;2022-12-07T00:36:25;100058.75;;;2.26;100.00
47738;BME280;33502;47.182;27.506;2022-12-07T00:38:51;100049.16;;;2.29;100.00
47738;BME280;33502;47.182;27.506;2022-12-07T00:41:19;100054.22;;;2.39;100.00
47738;BME280;33502;47.182;27.506;2022-12-07T00:43:47;100046.38;;;2.40;100.00
47738;BME280;33502;47.182;27.506;2022-12-07T00:46:14;100055.06;;;2.41;100.00
47738;BME280;33502;47.182;27.506;2022-12-07T00:48:40;100044.69;;;2.36;100.00
47738;BME280;33502;47.182;27.506;2022-12-07T00:51:06;100043.03;;;2.30;100.00
47738;BME280;33502;47.182;27.506;2022-12-07T00:53:35;100045.72;;;2.23;100.00
47738;BME280;33502;47.182;27.506;2022-12-07T00:56:26;100037.13;;;2.14;100.00
47738;BME280;33502;47.182;27.506;2022-12-07T00:58:52;100031.13;;;2.08;100.00
47738;BME280;33502;47.182;27.506;2022-12-07T01:01:18;100038.09;;;2.07;100.00
47738;BME280;33502;47.182;27.506;2022-12-07T01:03:44;100039.84;;;2.08;100.00
47738;BME280;33502;47.182;27.506;2022-12-07T01:06:14;100034.53;;;2.13;100.00
47738;BME280;33502;47.182;27.506;2022-12-07T01:08:40;100032.78;;;2.15;100.00
47738;BME280;33502;47.182;27.506;2022-12-07T01:11:09;100036.22;;;2.17;100.00
47738;BME280;33502;47.182;27.506;2022-12-07T01:13:35;100023.16;;;2.19;100.00
47738;BME280;33502;47.182;27.506;2022-12-07T01:16:03;100022.25;;;2.20;100.00
47738;BME280;33502;47.182;27.506;2022-12-07T01:18:30;100022.25;;;2.20;100.00
47738;BME280;33502;47.182;27.506;2022-12-07T01:21:13;100014.41;;;2.21;100.00
47738;BME280;33502;47.182;27.506;2022-12-07T01:23:40;100016.13;;;2.24;100.00
47738;BME280;33502;47.182;27.506;2022-12-07T01:26:10;100029.16;;;2.25;100.00
47738;BME280;33502;47.182;27.506;2022-12-07T01:28:36;100031.75;;;2.27;100.00
47738;BME280;33502;47.182;27.506;2022-12-07T01:31:04;100021.28;;;2.28;100.00
47738;BME280;33502;47.182;27.506;2022-12-07T01:33:33;100018.66;;;2.30;100.00
47738;BME280;33502;47.182;27.506;2022-12-07T01:38:34;100014.19;;;2.35;100.00
47738;BME280;33502;47.182;27.506;2022-12-07T01:41:01;100007.16;;;2.40;100.00
47738;BME280;33502;47.182;27.506;2022-12-07T01:43:29;100001.06;;;2.41;100.00
47738;BME280;33502;47.182;27.506;2022-12-07T01:45:55;100006.22;;;2.44;100.00
47738;BME280;33502;47.182;27.506;2022-12-07T01:48:34;100004.44;;;2.48;100.00
47738;BME280;33502;47.182;27.506;2022-12-07T01:51:05;99996.56;;;2.52;100.00
47738;BME280;33502;47.182;27.506;2022-12-07T01:53:36;99996.44;;;2.59;100.00
47738;BME280;33502;47.182;27.506;2022-12-07T01:56:05;99995.53;;;2.61;100.00
47738;BME280;33502;47.182;27.506;2022-12-07T01:58:33;99993.75;;;2.63;100.00
47738;BME280;33502;47.182;27.506;2022-12-07T02:00:58;99988.53;;;2.63;100.00
47738;BME280;33502;47.182;27.506;2022-12-07T02:03:32;99978.13;;;2.60;100.00
47738;BME280;33502;47.182;27.506;2022-12-07T02:05:59;99976.47;;;2.54;100.00
47738;BME280;33502;47.182;27.506;2022-12-07T02:08:25;99978.28;;;2.49;100.00
47738;BME280;33502;47.182;27.506;2022-12-07T02:10:51;99972.31;;;2.43;100.00
47738;BME280;33502;47.182;27.506;2022-12-07T02:13:23;99974.09;;;2.39;100.00
47738;BME280;33502;47.182;27.506;2022-12-07T02:30:06;99975.06;;;2.33;100.00
47738;BME280;33502;47.182;27.506;2022-12-07T02:35:15;99971.53;;;2.34;100.00
47738;BME280;33502;47.182;27.506;2022-12-07T02:38:02;99982.91;;;2.33;100.00
47738;BME280;33502;47.182;27.506;2022-12-07T02:43:34;99993.34;;;2.33;100.00
47738;BME280;33502;47.182;27.506;2022-12-07T02:46:08;99988.94;;;2.37;100.00
47738;BME280;33502;47.182;27.506;2022-12-07T02:48:37;99987.16;;;2.39;100.00
47738;BME280;33502;47.182;27.506;2022-12-07T02:51:04;99982.75;;;2.43;100.00
47738;BME280;33502;47.182;27.506;2022-12-07T02:53:34;99977.53;;;2.43;100.00
47738;BME280;33502;47.182;27.506;2022-12-07T02:56:06;99974.03;;;2.42;100.00
47738;BME280;33502;47.182;27.506;2022-12-07T03:01:42;99982.75;;;2.43;100.00
47738;BME280;33502;47.182;27.506;2022-12-07T03:10:17;99986.97;;;2.50;100.00
47738;BME280;33502;47.182;27.506;2022-12-07T03:12:45;99997.38;;;2.54;100.00
47738;BME280;33502;47.182;27.506;2022-12-07T03:15:18;99983.38;;;2.59;100.00
47738;BME280;33502;47.182;27.506;2022-12-07T03:17:49;99983.25;;;2.66;100.00
47738;BME280;33502;47.182;27.506;2022-12-07T03:20:19;99990.03;;;2.80;100.00
47738;BME280;33502;47.182;27.506;2022-12-07T03:22:47;99988.00;;;2.96;100.00
47738;BME280;33502;47.182;27.506;2022-12-07T03:25:15;99989.38;;;3.17;100.00
47738;BME280;33502;47.182;27.506;2022-12-07T03:30:19;99985.50;;;3.39;100.00
47738;BME280;33502;47.182;27.506;2022-12-07T03:35:26;99982.84;;;3.41;100.00
47738;BME280;33502;47.182;27.506;2022-12-07T03:37:56;99985.44;;;3.42;100.00
47738;BME280;33502;47.182;27.506;2022-12-07T03:40:33;99987.22;;;3.40;100.00
47738;BME280;33502;47.182;27.506;2022-12-07T03:43:00;99980.28;;;3.38;100.00
47738;BME280;33502;47.182;27.506;2022-12-07T03:45:43;99986.41;;;3.37;100.00
47738;BME280;33502;47.182;27.506;2022-12-07T03:51:42;99991.56;;;3.41;100.00
47738;BME280;33502;47.182;27.506;2022-12-07T03:54:11;99995.97;;;3.39;100.00
47738;BME280;33502;47.182;27.506;2022-12-07T03:56:39;99992.50;;;3.39;100.00
47738;BME280;33502;47.182;27.506;2022-12-07T03:59:05;99984.66;;;3.37;100.00
47738;BME280;33502;47.182;27.506;2022-12-07T04:01:32;99982.03;;;3.37;100.00
47738;BME280;33502;47.182;27.506;2022-12-07T04:03:58;99986.41;;;3.37;100.00
47738;BME280;33502;47.182;27.506;2022-12-07T04:06:23;99980.28;;;3.38;100.00
47738;BME280;33502;47.182;27.506;2022-12-07T04:08:49;99980.22;;;3.42;100.00
47738;BME280;33502;47.182;27.506;2022-12-07T04:11:15;99983.66;;;3.44;100.00
47738;BME280;33502;47.182;27.506;2022-12-07T04:13:40;99980.13;;;3.45;100.00
47738;BME280;33502;47.182;27.506;2022-12-07T04:16:25;99982.72;;;3.47;100.00
47738;BME280;33502;47.182;27.506;2022-12-07T04:18:51;99986.19;;;3.47;100.00
47738;BME280;33502;47.182;27.506;2022-12-07T04:21:16;99991.50;;;3.44;100.00
47738;BME280;33502;47.182;27.506;2022-12-07T04:23:42;99984.56;;;3.42;100.00
47738;BME280;33502;47.182;27.506;2022-12-07T04:26:08;99973.22;;;3.43;100.00
47738;BME280;33502;47.182;27.506;2022-12-07T04:28:34;99973.22;;;3.41;100.00
47738;BME280;33502;47.182;27.506;2022-12-07T04:30:59;99973.16;;;3.46;100.00
47738;BME280;33502;47.182;27.506;2022-12-07T04:33:25;99970.50;;;3.47;100.00
47738;BME280;33502;47.182;27.506;2022-12-07T04:35:51;99965.31;;;3.46;100.00
47738;BME280;33502;47.182;27.506;2022-12-07T04:38:17;99968.03;;;3.40;100.00
47738;BME280;33502;47.182;27.506;2022-12-07T04:40:42;99968.25;;;3.29;100.00
47738;BME280;33502;47.182;27.506;2022-12-07T04:43:08;99976.25;;;3.21;100.00
47738;BME280;33502;47.182;27.506;2022-12-07T04:45:34;99972.84;;;3.14;100.00
47738;BME280;33502;47.182;27.506;2022-12-07T04:47:59;99967.72;;;3.10;100.00
47738;BME280;33502;47.182;27.506;2022-12-07T04:50:25;99969.44;;;3.09;100.00
47738;BME280;33502;47.182;27.506;2022-12-07T04:52:51;99962.47;;;3.11;100.00
47738;BME280;33502;47.182;27.506;2022-12-07T04:55:16;99959.88;;;3.08;100.00
47738;BME280;33502;47.182;27.506;2022-12-07T04:57:42;99963.47;;;3.03;100.00
47738;BME280;33502;47.182;27.506;2022-12-07T05:00:08;99969.53;;;3.05;100.00
47738;BME280;33502;47.182;27.506;2022-12-07T05:02:34;99955.59;;;3.04;100.00
47738;BME280;33502;47.182;27.506;2022-12-07T05:05:00;99954.78;;;3.01;100.00
47738;BME280;33502;47.182;27.506;2022-12-07T05:07:25;99961.78;;;3.00;100.00
47738;BME280;33502;47.182;27.506;2022-12-07T05:09:51;99967.88;;;3.01;100.00
47738;BME280;33502;47.182;27.506;2022-12-07T05:12:17;99964.41;;;3.00;100.00
47738;BME280;33502;47.182;27.506;2022-12-07T05:14:43;99960.91;;;3.00;100.00
47738;BME280;33502;47.182;27.506;2022-12-07T05:17:08;99966.22;;;2.95;100.00
47738;BME280;33502;47.182;27.506;2022-12-07T05:19:34;99973.22;;;2.94;100.00
47738;BME280;33502;47.182;27.506;2022-12-07T05:22:00;99975.00;;;2.92;100.00
47738;BME280;33502;47.182;27.506;2022-12-07T05:24:25;99975.00;;;2.92;100.00
47738;BME280;33502;47.182;27.506;2022-12-07T05:26:51;99977.56;;;2.94;100.00
47738;BME280;33502;47.182;27.506;2022-12-07T05:29:17;99978.41;;;2.96;100.00
47738;BME280;33502;47.182;27.506;2022-12-07T05:31:43;99989.66;;;3.01;100.00
47738;BME280;33502;47.182;27.506;2022-12-07T05:34:09;99980.94;;;3.02;100.00
47738;BME280;33502;47.182;27.506;2022-12-07T05:36:36;99988.81;;;3.01;100.00
47738;BME280;33502;47.182;27.506;2022-12-07T05:39:02;99995.75;;;3.02;100.00
47738;BME280;33502;47.182;27.506;2022-12-07T05:41:28;99993.94;;;3.05;100.00
47738;BME280;33502;47.182;27.506;2022-12-07T05:44:12;99994.72;;;3.10;100.00
47738;BME280;33502;47.182;27.506;2022-12-07T05:46:38;99988.66;;;3.10;100.00
47738;BME280;33502;47.182;27.506;2022-12-07T05:49:04;99992.94;;;3.14;100.00
47738;BME280;33502;47.182;27.506;2022-12-07T05:51:29;99995.56;;;3.12;100.00
47738;BME280;33502;47.182;27.506;2022-12-07T05:53:55;99994.72;;;3.10;100.00
47738;BME280;33502;47.182;27.506;2022-12-07T05:56:21;99992.09;;;3.12;100.00
47738;BME280;33502;47.182;27.506;2022-12-07T05:58:47;99992.84;;;3.19;100.00
47738;BME280;33502;47.182;27.506;2022-12-07T06:01:31;99997.94;;;3.26;100.00
47738;BME280;33502;47.182;27.506;2022-12-07T06:03:57;99995.31;;;3.26;100.00
47738;BME280;33502;47.182;27.506;2022-12-07T06:06:23;99997.03;;;3.29;100.00
47738;BME280;33502;47.182;27.506;2022-12-07T06:08:49;99990.00;;;3.32;100.00
47738;BME280;33502;47.182;27.506;2022-12-07T06:11:14;100001.25;;;3.36;100.00
47738;BME280;33502;47.182;27.506;2022-12-07T06:13:59;99991.66;;;3.37;100.00
47738;BME280;33502;47.182;27.506;2022-12-07T06:16:24;99999.38;;;3.43;100.00
47738;BME280;33502;47.182;27.506;2022-12-07T06:18:50;99996.78;;;3.43;100.00
47738;BME280;33502;47.182;27.506;2022-12-07T06:21:16;100000.22;;;3.45;100.00
47738;BME280;33502;47.182;27.506;2022-12-07T06:23:41;99999.28;;;3.47;100.00
47738;BME280;33502;47.182;27.506;2022-12-07T06:26:07;99996.63;;;3.50;100.00
47738;BME280;33502;47.182;27.506;2022-12-07T06:28:33;99994.81;;;3.54;100.00
47738;BME280;33502;47.182;27.506;2022-12-07T06:31:02;99996.47;;;3.58;100.00
47738;BME280;33502;47.182;27.506;2022-12-07T06:33:28;99996.38;;;3.63;100.00
47738;BME280;33502;47.182;27.506;2022-12-07T06:35:55;99992.84;;;3.65;100.00
47738;BME280;33502;47.182;27.506;2022-12-07T06:38:20;99985.81;;;3.67;100.00
47738;BME280;33502;47.182;27.506;2022-12-07T06:40:46;99986.66;;;3.69;100.00
47738;BME280;33502;47.182;27.506;2022-12-07T06:43:12;99988.38;;;3.70;100.00
47738;BME280;33502;47.182;27.506;2022-12-07T06:45:38;99980.59;;;3.67;100.00
47738;BME280;33502;47.182;27.506;2022-12-07T06:48:03;99981.56;;;3.62;100.00
47738;BME280;33502;47.182;27.506;2022-12-07T06:50:29;99983.34;;;3.60;100.00
47738;BME280;33502;47.182;27.506;2022-12-07T06:52:55;99979.84;;;3.59;100.00
47738;BME280;33502;47.182;27.506;2022-12-07T06:55:20;99979.03;;;3.57;100.00
47738;BME280;33502;47.182;27.506;2022-12-07T06:57:46;99976.47;;;3.56;100.00
47738;BME280;33502;47.182;27.506;2022-12-07T07:00:12;99980.00;;;3.51;100.00
47738;BME280;33502;47.182;27.506;2022-12-07T07:02:38;99981.78;;;3.49;100.00
47738;BME280;33502;47.182;27.506;2022-12-07T07:05:04;99971.41;;;3.46;100.00
47738;BME280;33502;47.182;27.506;2022-12-07T07:07:30;99974.03;;;3.45;100.00
47738;BME280;33502;47.182;27.506;2022-12-07T07:09:55;99972.22;;;3.50;100.00
47738;BME280;33502;47.182;27.506;2022-12-07T07:12:21;99969.47;;;3.56;100.00
47738;BME280;33502;47.182;27.506;2022-12-07T07:14:47;99969.09;;;3.75;100.00
47738;BME280;33502;47.182;27.506;2022-12-07T07:17:13;99969.78;;;4.23;100.00
47738;BME280;33502;47.182;27.506;2022-12-07T07:19:38;99972.25;;;4.31;100.00
47738;BME280;33502;47.182;27.506;2022-12-07T07:22:04;99971.88;;;4.84;100.00
47738;BME280;33502;47.182;27.506;2022-12-07T07:24:30;99969.31;;;6.11;100.00
47738;BME280;33502;47.182;27.506;2022-12-07T07:26:56;99969.50;;;6.88;100.00
47738;BME280;33502;47.182;27.506;2022-12-07T07:29:22;99972.84;;;6.93;100.00
47738;BME280;33502;47.182;27.506;2022-12-07T07:31:48;99971.19;;;6.63;100.00
47738;BME280;33502;47.182;27.506;2022-12-07T07:34:13;99970.19;;;6.39;100.00
47738;BME280;33502;47.182;27.506;2022-12-07T07:36:39;99978.94;;;6.12;100.00
47738;BME280;33502;47.182;27.506;2022-12-07T07:39:05;99982.69;;;5.72;100.00
47738;BME280;33502;47.182;27.506;2022-12-07T07:41:31;99980.84;;;5.42;100.00
47738;BME280;33502;47.182;27.506;2022-12-07T07:43:57;99983.94;;;5.25;100.00
47738;BME280;33502;47.182;27.506;2022-12-07T07:46:22;99970.09;;;5.19;100.00
47738;BME280;33502;47.182;27.506;2022-12-07T07:48:48;99979.56;;;5.26;100.00
47738;BME280;33502;47.182;27.506;2022-12-07T07:52:49;99984.91;;;5.21;100.00
47738;BME280;33502;47.182;27.506;2022-12-07T07:55:15;99990.16;;;5.21;100.00
47738;BME280;33502;47.182;27.506;2022-12-07T07:57:41;99990.97;;;5.23;100.00
47738;BME280;33502;47.182;27.506;2022-12-07T08:00:11;99990.72;;;5.33;100.00
47738;BME280;33502;47.182;27.506;2022-12-07T08:02:39;99997.47;;;5.43;100.00
47738;BME280;33502;47.182;27.506;2022-12-07T08:05:05;100001.59;;;5.52;100.00
47738;BME280;33502;47.182;27.506;2022-12-07T08:07:31;99997.16;;;5.54;100.00
47738;BME280;33502;47.182;27.506;2022-12-07T08:09:56;99996.28;;;5.55;100.00
47738;BME280;33502;47.182;27.506;2022-12-07T08:12:22;100001.28;;;5.64;100.00
47738;BME280;33502;47.182;27.506;2022-12-07T08:14:48;99993.28;;;5.68;100.00
47738;BME280;33502;47.182;27.506;2022-12-07T08:17:14;99998.13;;;5.82;100.00
47738;BME280;33502;47.182;27.506;2022-12-07T08:19:39;99989.50;;;6.10;100.00
47738;BME280;33502;47.182;27.506;2022-12-07T08:22:05;99995.28;;;6.50;100.00
47738;BME280;33502;47.182;27.506;2022-12-07T08:24:34;99995.56;;;6.95;100.00
47738;BME280;33502;47.182;27.506;2022-12-07T08:27:00;99998.31;;;7.19;100.00
47738;BME280;33502;47.182;27.506;2022-12-07T08:29:25;99995.63;;;7.20;100.00
47738;BME280;33502;47.182;27.506;2022-12-07T08:31:51;99990.84;;;7.32;100.00
47738;BME280;33502;47.182;27.506;2022-12-07T08:34:17;99985.50;;;7.58;100.00
47738;BME280;33502;47.182;27.506;2022-12-07T08:36:42;99980.63;;;7.73;100.00
47738;BME280;33502;47.182;27.506;2022-12-07T08:39:08;99987.72;;;7.94;100.00
47738;BME280;33502;47.182;27.506;2022-12-07T08:41:34;99988.69;;;8.15;100.00
47738;BME280;33502;47.182;27.506;2022-12-07T08:44:00;99993.69;;;8.23;100.00
47738;BME280;33502;47.182;27.506;2022-12-07T08:46:36;99980.94;;;8.34;100.00
47738;BME280;33502;47.182;27.506;2022-12-07T08:49:10;99985.97;;;8.40;100.00
47738;BME280;33502;47.182;27.506;2022-12-07T08:51:38;99978.72;;;8.47;100.00
47738;BME280;33502;47.182;27.506;2022-12-07T08:54:07;99984.44;;;8.58;100.00
47738;BME280;33502;47.182;27.506;2022-12-07T08:56:34;99984.44;;;8.58;100.00
47738;BME280;33502;47.182;27.506;2022-12-07T08:59:00;99979.09;;;8.60;100.00
47738;BME280;33502;47.182;27.506;2022-12-07T09:01:26;99977.78;;;8.48;100.00
47738;BME280;33502;47.182;27.506;2022-12-07T09:03:52;99983.56;;;8.34;100.00
47738;BME280;33502;47.182;27.506;2022-12-07T09:06:18;99977.88;;;7.99;100.00
47738;BME280;33502;47.182;27.506;2022-12-07T09:08:47;99978.50;;;7.82;100.00
47738;BME280;33502;47.182;27.506;2022-12-07T09:11:15;99977.66;;;7.82;100.00
47738;BME280;33502;47.182;27.506;2022-12-07T09:13:41;99969.88;;;7.77;100.00
47738;BME280;33502;47.182;27.506;2022-12-07T09:16:07;99974.31;;;7.77;100.00
47738;BME280;33502;47.182;27.506;2022-12-07T09:18:33;99967.66;;;7.67;100.00
47738;BME280;33502;47.182;27.506;2022-12-07T09:20:58;99971.44;;;7.59;100.00
47738;BME280;33502;47.182;27.506;2022-12-07T09:23:24;99978.53;;;7.57;100.00
47738;BME280;33502;47.182;27.506;2022-12-07T09:25:50;99967.53;;;7.70;100.00
47738;BME280;33502;47.182;27.506;2022-12-07T09:28:16;99963.34;;;7.89;100.00
47738;BME280;33502;47.182;27.506;2022-12-07T09:30:48;99964.78;;;7.96;100.00
47738;BME280;33502;47.182;27.506;2022-12-07T09:33:14;99955.50;;;8.10;100.00
47738;BME280;33502;47.182;27.506;2022-12-07T09:35:47;99962.53;;;8.33;100.00
47738;BME280;33502;47.182;27.506;2022-12-07T09:38:21;99959.19;;;8.51;100.00
47738;BME280;33502;47.182;27.506;2022-12-07T09:41:23;99956.66;;;8.48;100.00
47738;BME280;33502;47.182;27.506;2022-12-07T09:43:52;99958.09;;;8.57;100.00
47738;BME280;33502;47.182;27.506;2022-12-07T09:46:19;99957.28;;;8.55;100.00
47738;BME280;33502;47.182;27.506;2022-12-07T09:48:47;99954.59;;;8.56;100.00
47738;BME280;33502;47.182;27.506;2022-12-07T09:51:19;99956.44;;;8.54;100.00
47738;BME280;33502;47.182;27.506;2022-12-07T09:53:46;99955.69;;;8.51;100.00
47738;BME280;33502;47.182;27.506;2022-12-07T09:56:16;99954.13;;;8.47;100.00
47738;BME280;33502;47.182;27.506;2022-12-07T09:58:43;99956.19;;;8.60;100.00
47738;BME280;33502;47.182;27.506;2022-12-07T10:01:17;99952.34;;;8.90;100.00
47738;BME280;33502;47.182;27.506;2022-12-07T10:03:54;99953.38;;;9.08;100.00
47738;BME280;33502;47.182;27.506;2022-12-07T10:06:21;99949.69;;;8.90;100.00
47738;BME280;33502;47.182;27.506;2022-12-07T10:08:47;99951.81;;;8.81;100.00
47738;BME280;33502;47.182;27.506;2022-12-07T10:11:13;99942.97;;;9.03;100.00
47738;BME280;33502;47.182;27.506;2022-12-07T10:16:40;99944.31;;;9.13;100.00
47738;BME280;33502;47.182;27.506;2022-12-07T10:19:22;99946.69;;;8.77;100.00
47738;BME280;33502;47.182;27.506;2022-12-07T10:24:28;99930.00;;;8.32;100.00
47738;BME280;33502;47.182;27.506;2022-12-07T10:26:54;99936.00;;;8.14;100.00
47738;BME280;33502;47.182;27.506;2022-12-07T10:29:28;99935.34;;;8.09;100.00
47738;BME280;33502;47.182;27.506;2022-12-07T10:31:58;99931.81;;;8.08;100.00
47738;BME280;33502;47.182;27.506;2022-12-07T10:34:30;99931.56;;;8.16;100.00
47738;BME280;33502;47.182;27.506;2022-12-07T10:42:30;99949.78;;;7.98;100.00
47738;BME280;33502;47.182;27.506;2022-12-07T10:56:46;99951.47;;;8.01;100.00
47738;BME280;33502;47.182;27.506;2022-12-07T11:04:34;99939.69;;;8.10;100.00
47738;BME280;33502;47.182;27.506;2022-12-07T11:07:12;99937.78;;;8.13;100.00
47738;BME280;33502;47.182;27.506;2022-12-07T11:12:36;99927.22;;;8.37;100.00
47738;BME280;33502;47.182;27.506;2022-12-07T11:15:20;99927.84;;;8.43;100.00
47738;BME280;33502;47.182;27.506;2022-12-07T11:18:07;99930.47;;;8.43;100.00
47738;BME280;33502;47.182;27.506;2022-12-07T11:37:35;99963.81;;;8.22;100.00
47738;BME280;33502;47.182;27.506;2022-12-07T11:40:26;99956.38;;;8.10;100.00
47738;BME280;33502;47.182;27.506;2022-12-07T11:43:05;99954.25;;;7.96;100.00
47738;BME280;33502;47.182;27.506;2022-12-07T11:45:34;99953.97;;;7.80;100.00
47738;BME280;33502;47.182;27.506;2022-12-07T11:48:09;99957.97;;;7.67;100.00
47738;BME280;33502;47.182;27.506;2022-12-07T11:50:42;99965.38;;;7.57;100.00
47738;BME280;33502;47.182;27.506;2022-12-07T12:06:43;99936.66;;;7.50;100.00
47738;BME280;33502;47.182;27.506;2022-12-07T12:09:18;99932.94;;;7.55;100.00
47738;BME280;33502;47.182;27.506;2022-12-07T12:20:53;99936.22;;;7.37;100.00
47738;BME280;33502;47.182;27.506;2022-12-07T12:23:38;99939.84;;;7.34;100.00
47738;BME280;33502;47.182;27.506;2022-12-07T12:26:08;99937.34;;;7.30;100.00
47738;BME280;33502;47.182;27.506;2022-12-07T12:28:55;99946.13;;;7.30;100.00
47738;BME280;33502;47.182;27.506;2022-12-07T12:34:01;99946.63;;;7.41;100.00
47738;BME280;33502;47.182;27.506;2022-12-07T12:47:01;99946.94;;;7.32;100.00
47738;BME280;33502;47.182;27.506;2022-12-07T12:55:22;99943.28;;;7.11;100.00
47738;BME280;33502;47.182;27.506;2022-12-07T13:03:54;99943.66;;;6.74;100.00
47738;BME280;33502;47.182;27.506;2022-12-07T13:08:50;99947.84;;;6.53;100.00
47738;BME280;33502;47.182;27.506;2022-12-07T13:16:58;99946.03;;;6.26;100.00
47738;BME280;33502;47.182;27.506;2022-12-07T13:27:38;99936.84;;;5.82;100.00
47738;BME280;33502;47.182;27.506;2022-12-07T13:30:17;99944.16;;;5.71;100.00
47738;BME280;33502;47.182;27.506;2022-12-07T13:32:51;99936.56;;;5.61;100.00
47738;BME280;33502;47.182;27.506;2022-12-07T13:35:36;99948.22;;;5.51;100.00
47738;BME280;33502;47.182;27.506;2022-12-07T13:38:13;99954.59;;;5.42;100.00
47738;BME280;33502;47.182;27.506;2022-12-07T13:40:41;99951.38;;;5.31;100.00
47738;BME280;33502;47.182;27.506;2022-12-07T13:43:15;99952.59;;;5.19;100.00
47738;BME280;33502;47.182;27.506;2022-12-07T13:45:42;99945.91;;;5.07;100.00
47738;BME280;33502;47.182;27.506;2022-12-07T13:48:42;99953.16;;;4.98;100.00
47738;BME280;33502;47.182;27.506;2022-12-07T13:51:25;99954.13;;;4.94;100.00
47738;BME280;33502;47.182;27.506;2022-12-07T13:56:40;99953.00;;;5.04;100.00
47738;BME280;33502;47.182;27.506;2022-12-07T13:59:23;99964.63;;;4.94;100.00
47738;BME280;33502;47.182;27.506;2022-12-07T14:01:52;99964.09;;;4.79;100.00
47738;BME280;33502;47.182;27.506;2022-12-07T14:04:32;99962.75;;;4.64;100.00
47738;BME280;33502;47.182;27.506;2022-12-07T14:06:59;99965.75;;;4.47;100.00
47738;BME280;33502;47.182;27.506;2022-12-07T14:09:27;99956.50;;;4.32;100.00
47738;BME280;33502;47.182;27.506;2022-12-07T14:11:55;99955.97;;;4.17;100.00
47738;BME280;33502;47.182;27.506;2022-12-07T14:14:28;99951.91;;;4.03;100.00
47738;BME280;33502;47.182;27.506;2022-12-07T14:17:17;99954.78;;;3.91;100.00
47738;BME280;33502;47.182;27.506;2022-12-07T14:22:36;99951.72;;;3.70;100.00
47738;BME280;33502;47.182;27.506;2022-12-07T14:27:37;99960.03;;;3.47;100.00
47738;BME280;33502;47.182;27.506;2022-12-07T14:30:04;99958.50;;;3.36;100.00
47738;BME280;33502;47.182;27.506;2022-12-07T14:32:31;99960.44;;;3.26;100.00
47738;BME280;33502;47.182;27.506;2022-12-07T14:35:12;99964.19;;;3.11;100.00
47738;BME280;33502;47.182;27.506;2022-12-07T14:37:40;99971.44;;;2.97;100.00
47738;BME280;33502;47.182;27.506;2022-12-07T14:40:07;99968.94;;;2.89;100.00
47738;BME280;33502;47.182;27.506;2022-12-07T14:42:34;99969.91;;;2.85;100.00
47738;BME280;33502;47.182;27.506;2022-12-07T14:45:00;99972.56;;;2.82;100.00
47738;BME280;33502;47.182;27.506;2022-12-07T14:47:27;99971.72;;;2.78;100.00
47738;BME280;33502;47.182;27.506;2022-12-07T14:49:52;99968.31;;;2.73;100.00
47738;BME280;33502;47.182;27.506;2022-12-07T14:52:25;99973.63;;;2.68;100.00
47738;BME280;33502;47.182;27.506;2022-12-07T14:54:52;99973.75;;;2.61;100.00
47738;BME280;33502;47.182;27.506;2022-12-07T14:57:18;99970.38;;;2.54;100.00
47738;BME280;33502;47.182;27.506;2022-12-07T14:59:44;99972.09;;;2.57;100.00
47738;BME280;33502;47.182;27.506;2022-12-07T15:02:12;99970.41;;;2.52;100.00
47738;BME280;33502;47.182;27.506;2022-12-07T15:04:38;99968.66;;;2.53;100.00
47738;BME280;33502;47.182;27.506;2022-12-07T15:07:09;99968.63;;;2.54;100.00
47738;BME280;33502;47.182;27.506;2022-12-07T15:09:37;99970.34;;;2.55;100.00
47738;BME280;33502;47.182;27.506;2022-12-07T15:12:02;99975.59;;;2.54;100.00
47738;BME280;33502;47.182;27.506;2022-12-07T15:14:29;99968.66;;;2.53;100.00
47738;BME280;33502;47.182;27.506;2022-12-07T15:16:54;99979.13;;;2.51;100.00
47738;BME280;33502;47.182;27.506;2022-12-07T15:19:22;99985.25;;;2.50;100.00
47738;BME280;33502;47.182;27.506;2022-12-07T15:21:51;99976.53;;;2.48;100.00
47738;BME280;33502;47.182;27.506;2022-12-07T15:24:18;99973.88;;;2.53;100.00
47738;BME280;33502;47.182;27.506;2022-12-07T15:26:45;99979.94;;;2.57;100.00
47738;BME280;33502;47.182;27.506;2022-12-07T15:29:11;99985.16;;;2.57;100.00
47738;BME280;33502;47.182;27.506;2022-12-07T15:31:37;99980.78;;;2.57;100.00
47738;BME280;33502;47.182;27.506;2022-12-07T15:34:04;99984.25;;;2.58;100.00
47738;BME280;33502;47.182;27.506;2022-12-07T15:36:31;99978.06;;;2.63;100.00
47738;BME280;33502;47.182;27.506;2022-12-07T15:38:57;99979.66;;;2.73;100.00